Time;durP1;ratioP1;P1;durP2;ratioP2;P2;SDS_P1;SDS_P2;PMS_P1;PMS_P2;Temp;Humidity;BMP_temperature;BMP_pressure;BME280_temperature;BME280_humidity;BME280_pressure;Samples;Min_cycle;Max_cycle;Signal;HPM_P1;HPM_P2
2022/06/24 00:01:19;;;;;;;2.90;2.70;;;;;;;22.48;71.81;96783.63;6087064;23;20171;-90
2022/06/24 00:03:46;;;;;;;2.60;2.40;;;;;;;22.29;71.71;96765.41;6086498;23;20180;-90
2022/06/24 00:06:15;;;;;;;3.00;2.60;;;;;;;23.33;72.03;96932.59;6087705;23;20201;-90
2022/06/24 00:08:56;;;;;;;3.00;2.80;;;;;;;23.17;71.79;96910.13;6089033;23;20187;-90
2022/06/24 00:11:24;;;;;;;2.67;2.47;;;;;;;22.08;71.67;96712.22;6063768;23;20184;-89
2022/06/24 00:13:51;;;;;;;2.60;2.40;;;;;;;22.30;71.81;96751.78;6086679;23;20208;-89
2022/06/24 00:16:18;;;;;;;2.60;2.40;;;;;;;22.81;71.83;96843.03;6086089;23;20206;-90
2022/06/24 00:18:46;;;;;;;2.90;2.70;;;;;;;23.03;72.24;96874.88;6087464;23;20201;-90
2022/06/24 00:21:13;;;;;;;2.90;2.70;;;;;;;22.94;71.80;96864.53;6088091;23;20168;-90
2022/06/24 00:23:40;;;;;;;2.73;2.53;;;;;;;22.21;71.79;96733.72;6066018;23;20184;-90
2022/06/24 00:26:07;;;;;;;2.80;2.60;;;;;;;22.92;71.87;96849.13;6064802;23;20228;-89
2022/06/24 00:28:33;;;;;;;2.73;2.23;;;;;;;22.84;71.81;96847.31;6061684;23;20181;-90
2022/06/24 00:31:02;;;;;;;2.80;2.60;;;;;;;22.71;72.03;96817.25;6084720;23;20424;-89
2022/06/24 00:33:33;;;;;;;2.87;2.63;;;;;;;21.99;71.75;96691.59;6063804;23;20188;-90
2022/06/24 00:36:00;;;;;;;2.60;2.40;;;;;;;23.22;71.87;96902.50;6065610;23;20204;-90
2022/06/24 00:38:27;;;;;;;2.73;2.50;;;;;;;23.35;71.78;96917.22;6086416;23;20160;-90
2022/06/24 00:40:59;;;;;;;2.87;2.67;;;;;;;23.35;71.87;96907.84;6063318;23;20180;-89
2022/06/24 00:43:26;;;;;;;2.57;2.37;;;;;;;23.36;72.02;96913.84;6087531;23;20465;-90
2022/06/24 00:46:08;;;;;;;2.90;2.70;;;;;;;22.65;71.66;96787.28;6087781;23;20204;-90
2022/06/24 00:48:38;;;;;;;2.63;2.43;;;;;;;22.22;71.55;96708.16;6087913;23;20183;-90
2022/06/24 00:51:07;;;;;;;2.57;2.37;;;;;;;21.95;71.55;96681.31;6087378;23;20212;-90
2022/06/24 00:53:41;;;;;;;2.70;2.50;;;;;;;23.35;71.71;96918.09;6085159;23;20605;-90
2022/06/24 00:56:09;;;;;;;2.47;2.33;;;;;;;22.48;71.60;96769.94;6087079;23;20228;-89
2022/06/24 00:58:37;;;;;;;2.80;2.60;;;;;;;23.23;72.08;96902.53;6087555;23;20217;-90
2022/06/24 01:01:03;;;;;;;2.40;2.20;;;;;;;23.01;71.57;96867.19;6059916;23;20172;-90
2022/06/24 01:03:40;;;;;;;3.00;2.50;;;;;;;22.03;71.60;96688.28;6062641;23;20184;-89
2022/06/24 01:06:08;;;;;;;2.87;2.63;;;;;;;23.14;71.63;96887.03;6085150;23;20200;-90
2022/06/24 01:08:34;;;;;;;2.77;2.57;;;;;;;22.20;71.70;96712.38;6087663;23;20188;-91
2022/06/24 01:11:01;;;;;;;2.50;2.30;;;;;;;22.23;71.59;96720.09;6089480;23;20515;-90
2022/06/24 01:13:28;;;;;;;2.43;2.23;;;;;;;23.14;71.63;96881.91;6063507;23;20649;-90
2022/06/24 01:15:55;;;;;;;2.47;2.27;;;;;;;23.02;71.64;96856.13;6039969;23;20200;-90
2022/06/24 01:18:22;;;;;;;2.57;2.37;;;;;;;21.74;71.57;96656.28;6088853;23;20180;-90
2022/06/24 01:20:49;;;;;;;2.60;2.40;;;;;;;22.63;71.42;96796.66;6090351;23;20165;-90
2022/06/24 01:23:25;;;;;;;2.57;2.40;;;;;;;23.17;71.63;96888.75;6090720;23;20165;-90
2022/06/24 01:25:52;;;;;;;2.30;2.20;;;;;;;22.97;71.59;96851.75;6066674;23;20211;-90
2022/06/24 01:28:18;;;;;;;2.70;2.50;;;;;;;22.75;71.37;96809.63;6089810;23;20187;-90
2022/06/24 01:30:45;;;;;;;2.50;2.30;;;;;;;22.91;71.70;96839.72;6061399;23;20181;-90
2022/06/24 01:33:12;;;;;;;2.70;2.50;;;;;;;22.71;71.52;96801.88;6087718;23;20208;-90
2022/06/24 01:35:38;;;;;;;2.60;2.40;;;;;;;22.88;71.48;96843.94;6090655;23;20184;-90
2022/06/24 01:38:05;;;;;;;2.50;2.30;;;;;;;22.34;71.36;96741.59;6090661;23;20164;-90
2022/06/24 01:40:32;;;;;;;2.90;2.70;;;;;;;23.16;71.42;96885.34;6064354;23;20193;-90
2022/06/24 01:43:00;;;;;;;2.53;2.33;;;;;;;22.06;71.22;96690.88;6088707;23;20386;-90
2022/06/24 01:45:27;;;;;;;2.67;2.47;;;;;;;22.32;71.40;96732.19;6088252;23;20208;-90
2022/06/24 01:47:53;;;;;;;2.77;2.57;;;;;;;22.99;71.26;96856.06;6088609;23;20196;-90
2022/06/24 01:50:20;;;;;;;2.90;2.70;;;;;;;23.16;71.42;96880.22;6088381;23;20184;-90
2022/06/24 01:52:47;;;;;;;2.50;2.30;;;;;;;22.32;71.19;96744.97;6086305;23;20188;-90
2022/06/24 01:55:13;;;;;;;3.03;2.73;;;;;;;22.88;71.43;96837.13;6086217;23;20191;-90
2022/06/24 01:57:40;;;;;;;2.37;2.27;;;;;;;23.18;71.23;96888.78;6087573;23;20232;-90
2022/06/24 02:00:07;;;;;;;2.70;2.50;;;;;;;23.01;71.36;96853.53;6087711;23;20188;-89
2022/06/24 02:02:34;;;;;;;2.50;2.30;;;;;;;22.46;71.58;96761.38;6087417;23;20172;-89
2022/06/24 02:05:01;;;;;;;2.70;2.50;;;;;;;22.96;71.42;96845.78;6088066;23;20180;-90
2022/06/24 02:07:28;;;;;;;2.20;2.00;;;;;;;22.91;71.29;96838.84;6088777;23;20200;-90
2022/06/24 02:15:24;;;;;;;2.50;2.30;;;;;;;22.99;71.38;96853.50;6087979;23;20165;-90
2022/06/24 02:17:51;;;;;;;2.70;2.30;;;;;;;22.98;71.31;96867.16;6087748;23;20200;-90
2022/06/24 02:20:18;;;;;;;2.30;2.20;;;;;;;22.10;71.29;96707.13;6062549;23;20236;-91
2022/06/24 02:22:44;;;;;;;2.47;2.27;;;;;;;23.09;71.09;96877.53;6090199;23;20187;-90
2022/06/24 02:25:11;;;;;;;2.30;2.10;;;;;;;23.20;71.27;96883.66;6090347;23;20185;-90
2022/06/24 02:27:38;;;;;;;2.40;2.20;;;;;;;22.79;71.22;96810.50;6089502;23;20200;-90
2022/06/24 02:30:05;;;;;;;2.30;2.10;;;;;;;23.21;71.38;96885.41;6086986;23;20191;-90
2022/06/24 02:32:32;;;;;;;2.37;2.20;;;;;;;23.34;71.09;96911.25;6087766;23;20188;-89
2022/06/24 02:34:59;;;;;;;2.50;2.30;;;;;;;22.78;71.46;96819.91;6090169;23;20244;-91
2022/06/24 02:37:26;;;;;;;2.40;2.20;;;;;;;22.37;71.33;96751.00;6090981;23;20207;-90
2022/06/24 02:39:52;;;;;;;2.57;2.37;;;;;;;23.11;71.17;96881.84;6090124;23;20164;-90
2022/06/24 02:42:19;;;;;;;2.47;2.27;;;;;;;23.24;71.20;96908.56;6087932;23;20177;-90
2022/06/24 02:44:46;;;;;;;2.63;2.30;;;;;;;22.83;71.13;96843.88;6088094;23;20180;-90
2022/06/24 02:47:12;;;;;;;2.60;2.40;;;;;;;23.09;71.25;96880.97;6063154;23;20215;-90
2022/06/24 02:49:39;;;;;;;2.63;2.43;;;;;;;22.68;71.18;96796.72;6087144;23;20184;-90
2022/06/24 02:52:06;;;;;;;2.10;2.00;;;;;;;22.73;71.19;96808.75;6087435;23;20196;-90
2022/06/24 02:54:33;;;;;;;2.50;2.30;;;;;;;21.99;71.26;96678.81;6087530;23;20212;-90
2022/06/24 02:56:59;;;;;;;2.57;2.37;;;;;;;22.60;71.12;96775.25;6087784;23;20200;-90
2022/06/24 02:59:26;;;;;;;2.07;1.97;;;;;;;22.35;70.99;96732.22;6087989;23;20187;-90
2022/06/24 03:01:53;;;;;;;5.93;2.33;;;;;;;22.76;70.76;96800.22;6087482;23;20177;-89
2022/06/24 03:04:19;;;;;;;2.10;2.00;;;;;;;23.15;71.18;96870.78;6087552;23;20169;-90
2022/06/24 03:06:46;;;;;;;2.57;2.37;;;;;;;23.31;71.18;96906.09;6087726;23;20200;-90
2022/06/24 03:09:13;;;;;;;2.30;2.10;;;;;;;22.84;71.27;96820.00;6088443;23;20216;-91
2022/06/24 03:11:40;;;;;;;2.20;2.10;;;;;;;22.91;71.30;96842.28;6089322;23;20222;-90
2022/06/24 03:14:06;;;;;;;2.13;2.03;;;;;;;22.62;71.24;96796.66;6087543;23;20169;-90
2022/06/24 03:16:33;;;;;;;2.30;2.20;;;;;;;22.72;71.16;96824.97;6087139;23;20208;-90
2022/06/24 03:18:59;;;;;;;2.20;2.10;;;;;;;22.95;71.24;96869.66;6063762;23;20508;-90
2022/06/24 03:21:26;;;;;;;2.00;1.90;;;;;;;23.02;71.25;96893.69;6089840;23;20176;-90
2022/06/24 03:23:52;;;;;;;2.73;2.53;;;;;;;23.06;71.16;96895.44;6043418;23;20217;-90
2022/06/24 03:26:19;;;;;;;2.17;2.03;;;;;;;22.65;71.29;96823.13;6088073;23;20226;-90
2022/06/24 03:28:49;;;;;;;2.43;2.23;;;;;;;22.63;71.30;96819.72;6086663;23;20177;-90
2022/06/24 03:31:15;;;;;;;2.40;2.20;;;;;;;23.22;71.34;96920.44;6086037;23;20216;-90
2022/06/24 03:33:42;;;;;;;2.20;2.10;;;;;;;22.70;70.99;96831.75;6087438;23;20205;-90
2022/06/24 03:36:10;;;;;;;2.17;1.97;;;;;;;22.12;70.96;96734.47;6091336;23;20184;-91
2022/06/24 03:38:36;;;;;;;2.20;2.10;;;;;;;22.60;71.15;96817.13;6090611;23;20176;-91
2022/06/24 03:41:10;;;;;;;2.20;2.10;;;;;;;22.39;71.11;96793.72;6088137;23;20177;-90
2022/06/24 03:43:37;;;;;;;2.50;2.30;;;;;;;22.86;71.27;96884.91;6088239;23;20180;-89
2022/06/24 03:46:03;;;;;;;2.30;2.20;;;;;;;23.06;71.13;96908.25;6087555;23;20196;-90
2022/06/24 03:48:30;;;;;;;2.20;2.10;;;;;;;23.07;71.36;96899.75;6087434;23;20180;-90
2022/06/24 03:50:57;;;;;;;2.50;2.30;;;;;;;23.05;71.12;96896.28;6062930;23;20168;-90
2022/06/24 03:53:23;;;;;;;2.37;2.20;;;;;;;23.06;70.94;96892.88;6087136;23;20226;-90
2022/06/24 03:55:50;;;;;;;2.20;2.00;;;;;;;22.92;71.04;96869.63;6086881;23;20238;-90
2022/06/24 03:58:20;;;;;;;2.70;2.20;;;;;;;22.45;71.17;96791.25;6086965;23;20165;-90
2022/06/24 04:00:46;;;;;;;2.30;2.20;;;;;;;23.20;71.15;96928.13;6086990;23;20180;-90
2022/06/24 04:03:13;;;;;;;2.30;2.10;;;;;;;22.84;70.95;96860.13;6087004;23;20236;-89
2022/06/24 04:05:40;;;;;;;2.10;2.00;;;;;;;22.94;71.18;96885.88;6087387;23;20180;-90
2022/06/24 04:08:07;;;;;;;2.20;2.10;;;;;;;22.19;71.30;96759.28;6088211;23;20210;-90
2022/06/24 04:10:34;;;;;;;2.10;2.00;;;;;;;22.54;71.21;96819.59;6088339;23;20188;-90
2022/06/24 04:13:00;;;;;;;2.37;2.17;;;;;;;22.84;70.97;96875.50;6063323;23;20200;-89
2022/06/24 04:15:27;;;;;;;2.10;1.90;;;;;;;22.83;71.24;96868.66;6086364;23;20180;-89
2022/06/24 04:17:54;;;;;;;2.00;1.90;;;;;;;23.38;71.37;96968.53;6087255;23;20212;-90
2022/06/24 04:20:20;;;;;;;2.13;2.03;;;;;;;23.06;71.05;96908.25;6063338;23;20180;-90
2022/06/24 04:22:48;;;;;;;2.30;2.10;;;;;;;22.75;71.04;96862.56;6089344;23;20164;-90
2022/06/24 04:25:15;;;;;;;2.27;2.17;;;;;;;23.21;70.87;96945.22;6088890;23;20180;-90
2022/06/24 04:27:41;;;;;;;2.07;1.97;;;;;;;22.93;71.17;96898.69;6087661;23;20204;-90
2022/06/24 04:30:09;;;;;;;2.33;2.13;;;;;;;22.90;71.17;96890.94;6084413;23;20180;-90
2022/06/24 04:32:36;;;;;;;2.30;2.20;;;;;;;22.90;71.08;96903.75;6086041;23;20204;-89
2022/06/24 04:35:04;;;;;;;2.03;1.93;;;;;;;23.07;71.02;96926.22;6088532;23;20179;-89
2022/06/24 04:37:30;;;;;;;2.10;2.00;;;;;;;22.79;70.72;96872.88;6089064;23;20274;-90
2022/06/24 04:39:58;;;;;;;2.20;2.10;;;;;;;22.38;70.95;96803.94;6088902;23;20181;-90
2022/06/24 04:42:24;;;;;;;2.00;1.90;;;;;;;23.38;71.23;96982.25;6086052;23;20164;-90
2022/06/24 04:44:51;;;;;;;2.27;2.10;;;;;;;22.92;71.00;96899.53;6088673;23;20212;-90
2022/06/24 04:47:18;;;;;;;2.23;2.13;;;;;;;23.24;71.23;96959.84;6088141;23;20592;-90
2022/06/24 04:49:44;;;;;;;2.07;1.97;;;;;;;22.18;71.00;96785.75;6086893;23;20181;-90
2022/06/24 04:52:11;;;;;;;2.20;2.10;;;;;;;23.07;71.03;96927.94;6087475;23;20247;-90
2022/06/24 04:54:38;;;;;;;2.23;1.93;;;;;;;22.52;70.78;96843.44;6087456;23;20184;-90
2022/06/24 04:57:05;;;;;;;2.10;2.00;;;;;;;23.38;71.16;96978.81;6088673;23;20196;-90
2022/06/24 04:59:31;;;;;;;2.57;2.37;;;;;;;23.06;70.90;96932.19;6088558;23;20180;-89
2022/06/24 05:01:58;;;;;;;2.37;2.27;;;;;;;22.92;71.17;96912.34;6091697;23;20164;-91
2022/06/24 05:04:32;;;;;;;2.10;2.00;;;;;;;22.73;71.16;96871.91;6089526;23;20162;-90
2022/06/24 05:06:59;;;;;;;4.50;1.60;;;;;;;22.73;70.42;96880.47;6087600;23;20204;-89
2022/06/24 05:09:25;;;;;;;2.13;1.93;;;;;;;22.68;70.90;96871.00;6085309;23;20220;-90
2022/06/24 05:11:52;;;;;;;1.90;1.80;;;;;;;23.20;71.00;96969.13;6080601;23;20217;-89
2022/06/24 05:14:19;;;;;;;2.03;1.93;;;;;;;23.11;71.01;96947.63;6092582;23;20165;-90
2022/06/24 05:16:45;;;;;;;1.90;1.80;;;;;;;22.67;70.85;96871.81;6085185;23;20211;-89
2022/06/24 05:19:12;;;;;;;1.90;1.80;;;;;;;22.51;70.74;96845.16;6090856;23;20177;-91
2022/06/24 05:21:39;;;;;;;1.77;1.67;;;;;;;21.86;70.64;96730.66;6093668;23;20160;-90
2022/06/24 05:24:06;;;;;;;1.80;1.70;;;;;;;22.67;70.87;96877.81;6090137;23;20204;-90
2022/06/24 05:26:32;;;;;;;1.90;1.80;;;;;;;22.98;71.05;96926.09;6064000;23;20204;-91
2022/06/24 05:28:59;;;;;;;1.93;1.83;;;;;;;22.40;70.73;96831.28;6087969;23;20200;-91
2022/06/24 05:31:25;;;;;;;2.00;1.90;;;;;;;22.79;70.81;96897.63;6087142;23;20180;-90
2022/06/24 05:33:52;;;;;;;2.00;1.90;;;;;;;23.06;71.36;96946.69;6086215;23;20200;-90
2022/06/24 05:36:19;;;;;;;1.90;1.80;;;;;;;22.82;71.18;96905.34;6088341;23;20224;-91
2022/06/24 05:38:46;;;;;;;2.13;1.90;;;;;;;22.85;71.03;96916.50;6091230;23;20177;-91
2022/06/24 05:41:13;;;;;;;2.00;1.90;;;;;;;22.38;70.98;96840.63;6064222;23;20188;-91
2022/06/24 05:43:39;;;;;;;1.90;1.80;;;;;;;22.94;70.95;96924.31;6092912;23;20169;-91
2022/06/24 05:46:06;;;;;;;2.00;1.90;;;;;;;22.88;70.61;96928.50;6091328;23;20959;-92
2022/06/24 05:48:32;;;;;;;1.90;1.80;;;;;;;21.86;70.77;96729.78;6091138;23;20228;-90
2022/06/24 05:50:59;;;;;;;1.90;1.80;;;;;;;23.18;70.89;96958.00;6066746;23;20179;-90
2022/06/24 05:56:12;;;;;;;1.80;1.70;;;;;;;23.20;71.03;96953.75;6064542;23;20200;-89
2022/06/24 05:58:39;;;;;;;2.43;2.23;;;;;;;22.90;71.20;96899.50;6089652;23;20176;-90
2022/06/24 06:01:11;;;;;;;1.80;1.70;;;;;;;23.23;70.95;96958.94;6091722;23;20168;-91
2022/06/24 06:03:40;;;;;;;1.70;1.60;;;;;;;22.01;70.93;96743.66;6091975;23;20141;-90
2022/06/24 06:06:07;;;;;;;1.83;1.73;;;;;;;23.19;71.00;96948.59;6088144;23;20196;-90
2022/06/24 06:08:37;;;;;;;1.90;1.80;;;;;;;22.34;71.07;96799.59;6085909;23;20243;-89
2022/06/24 06:11:21;;;;;;;2.40;2.20;;;;;;;23.09;70.93;96915.97;6063393;23;20180;-90
2022/06/24 06:13:50;;;;;;;2.00;1.90;;;;;;;22.96;70.93;96889.34;6067373;23;20188;-90
2022/06/24 06:16:17;;;;;;;1.70;1.60;;;;;;;23.33;70.85;96952.25;6062361;23;20227;-91
2022/06/24 06:18:44;;;;;;;1.73;1.63;;;;;;;22.74;71.00;96855.72;6061200;23;20180;-90
2022/06/24 06:21:11;;;;;;;1.70;1.60;;;;;;;22.16;70.95;96761.81;6086519;23;20212;-90
2022/06/24 06:23:39;;;;;;;2.03;1.83;;;;;;;22.76;70.84;96861.72;6090424;23;20168;-90
2022/06/24 06:26:08;;;;;;;2.07;1.97;;;;;;;22.90;70.91;96880.69;6089570;23;20216;-90
2022/06/24 06:28:34;;;;;;;1.70;1.60;;;;;;;22.29;70.86;96771.38;6088581;23;20181;-90
2022/06/24 06:31:01;;;;;;;1.80;1.70;;;;;;;22.97;70.93;96877.38;6085991;23;20180;-90
2022/06/24 06:33:28;;;;;;;1.90;1.80;;;;;;;22.56;71.00;96791.44;6088227;23;20200;-90
2022/06/24 06:36:16;;;;;;;1.80;1.70;;;;;;;23.19;70.92;96902.47;6088709;23;20204;-90
2022/06/24 06:38:42;;;;;;;1.90;1.80;;;;;;;22.75;70.65;96831.81;6089125;23;20153;-90
2022/06/24 06:41:17;;;;;;;1.87;1.77;;;;;;;22.88;70.85;96849.06;6063887;23;20175;-90
2022/06/24 06:43:44;;;;;;;1.87;1.77;;;;;;;23.00;71.10;96870.59;6089540;23;20193;-90
2022/06/24 06:46:10;;;;;;;1.80;1.70;;;;;;;23.27;70.94;96922.25;6087645;23;20204;-90
2022/06/24 06:48:38;;;;;;;1.73;1.63;;;;;;;22.99;70.70;96881.69;6087317;23;20180;-90
2022/06/24 06:51:04;;;;;;;1.70;1.60;;;;;;;22.97;70.86;96878.25;6087536;23;20180;-90
2022/06/24 06:53:31;;;;;;;1.90;1.80;;;;;;;23.11;70.96;96901.50;6087917;23;20195;-91
2022/06/24 06:55:58;;;;;;;8.27;1.73;;;;;;;22.52;69.84;96800.75;6090412;23;20217;-90
2022/06/24 06:58:24;;;;;;;3.40;1.70;;;;;;;22.39;70.09;96777.50;6091713;23;20184;-91
2022/06/24 07:00:51;;;;;;;1.70;1.60;;;;;;;22.34;70.29;96771.44;6091776;23;20165;-91
2022/06/24 07:03:18;;;;;;;1.83;1.73;;;;;;;22.29;70.26;96763.69;6092078;23;20216;-91
2022/06/24 07:05:44;;;;;;;1.70;1.60;;;;;;;22.22;70.70;96738.00;6090969;23;20168;-91
2022/06/24 07:08:12;;;;;;;2.07;1.87;;;;;;;23.01;70.72;96882.56;6091246;23;20164;-90
2022/06/24 07:10:39;;;;;;;1.90;1.70;;;;;;;22.32;70.78;96752.66;6090415;23;20165;-92
2022/06/24 07:13:06;;;;;;;1.70;1.60;;;;;;;22.41;70.96;96774.09;6087776;23;20195;-91
2022/06/24 07:15:32;;;;;;;2.93;1.60;;;;;;;23.09;70.88;96880.09;6086243;23;20180;-90
2022/06/24 07:17:59;;;;;;;2.13;2.00;;;;;;;22.74;70.77;96838.63;6062034;23;20196;-91
2022/06/24 07:20:26;;;;;;;2.23;1.90;;;;;;;23.00;70.89;96857.78;6090279;23;20212;-90
2022/06/24 07:22:52;;;;;;;2.17;1.97;;;;;;;22.44;71.42;96763.06;6087403;23;20180;-90
2022/06/24 07:25:19;;;;;;;1.80;1.70;;;;;;;23.00;71.28;96856.91;6089150;23;20261;-93
2022/06/24 07:27:46;;;;;;;1.63;1.53;;;;;;;23.00;71.14;96854.34;6091849;23;20220;-91
2022/06/24 07:30:13;;;;;;;1.90;1.70;;;;;;;22.82;70.95;96824.22;6091917;23;20153;-92
2022/06/24 07:32:39;;;;;;;1.90;1.80;;;;;;;22.24;71.00;96731.22;6091459;23;20165;-92
2022/06/24 07:35:06;;;;;;;2.27;1.77;;;;;;;22.19;70.66;96714.91;6091696;23;20175;-92
2022/06/24 07:37:52;;;;;;;1.83;1.73;;;;;;;22.20;70.62;96735.41;6091349;23;20216;-92
2022/06/24 07:40:19;;;;;;;1.80;1.70;;;;;;;22.21;70.45;96733.72;6091561;23;20164;-91
2022/06/24 07:42:46;;;;;;;1.60;1.50;;;;;;;23.01;70.90;96849.25;6091358;23;20168;-92
2022/06/24 07:45:13;;;;;;;2.13;1.60;;;;;;;22.31;70.57;96731.31;6090812;23;20179;-92
2022/06/24 07:47:40;;;;;;;1.97;1.87;;;;;;;23.41;70.64;96921.59;6089598;23;20735;-92
2022/06/24 07:50:07;;;;;;;1.70;1.60;;;;;;;22.54;70.22;96790.53;6091532;23;20393;-92
2022/06/24 07:52:33;;;;;;;2.13;1.93;;;;;;;22.24;70.14;96713.28;6091052;23;20177;-92
2022/06/24 07:57:45;;;;;;;1.80;1.70;;;;;;;23.03;70.51;96846.69;6070026;23;20188;-91
2022/06/24 08:00:12;;;;;;;1.80;1.70;;;;;;;22.22;70.20;96725.19;6091863;23;20171;-92
2022/06/24 08:02:39;;;;;;;1.57;1.47;;;;;;;22.24;70.68;96718.41;6091022;23;20168;-92
2022/06/24 08:05:06;;;;;;;1.70;1.60;;;;;;;22.14;70.55;96704.63;6091548;23;20168;-91
2022/06/24 08:07:32;;;;;;;2.03;1.93;;;;;;;22.23;70.45;96719.25;6091700;23;20172;-91
2022/06/24 08:09:59;;;;;;;1.80;1.70;;;;;;;22.95;70.38;96830.38;6091159;23;20172;-93
2022/06/24 08:12:25;;;;;;;1.80;1.70;;;;;;;22.29;70.50;96727.84;6091538;23;20169;-92
2022/06/24 08:14:52;;;;;;;1.87;1.50;;;;;;;22.29;70.52;96709.94;6091104;23;20306;-92
2022/06/24 08:17:19;;;;;;;1.70;1.60;;;;;;;22.28;70.55;96723.59;6091484;23;20195;-92
2022/06/24 08:19:45;;;;;;;1.63;1.50;;;;;;;22.71;70.30;96782.22;6092929;23;20180;-92
2022/06/24 08:22:12;;;;;;;1.70;1.60;;;;;;;22.51;70.39;96746.97;6093000;23;20171;-91
2022/06/24 08:24:46;;;;;;;1.73;1.60;;;;;;;22.23;70.12;96702.19;6092845;23;20180;-92
2022/06/24 08:27:32;;;;;;;1.60;1.50;;;;;;;22.39;70.26;96746.78;6072943;23;20218;-92
2022/06/24 08:29:59;;;;;;;1.80;1.70;;;;;;;22.50;70.00;96755.47;6092920;23;20192;-92
2022/06/24 08:32:26;;;;;;;1.70;1.50;;;;;;;22.32;70.16;96742.44;6093858;23;20153;-93
2022/06/24 08:34:53;;;;;;;1.70;1.60;;;;;;;22.63;70.20;96776.19;6092645;23;20188;-92
2022/06/24 08:37:39;;;;;;;1.50;1.40;;;;;;;23.05;70.22;96839.91;6092670;23;20184;-92
2022/06/24 08:40:06;;;;;;;2.03;1.80;;;;;;;22.47;70.08;96733.22;6093123;23;20157;-92
2022/06/24 08:42:33;;;;;;;1.70;1.60;;;;;;;22.52;70.16;96746.13;6092942;23;20164;-92
2022/06/24 08:45:00;;;;;;;1.80;1.70;;;;;;;22.26;70.09;96712.47;6068709;23;20192;-92
2022/06/24 08:47:27;;;;;;;1.60;1.50;;;;;;;22.23;70.85;96701.34;6093276;23;20248;-92
2022/06/24 08:49:53;;;;;;;2.40;1.60;;;;;;;23.04;69.90;96830.50;6093013;23;20170;-92
2022/06/24 08:52:20;;;;;;;1.70;1.60;;;;;;;22.63;70.29;96749.69;6093267;23;20181;-91
2022/06/24 08:54:47;;;;;;;1.83;1.43;;;;;;;23.05;70.36;96821.97;6092830;23;20215;-92
2022/06/24 08:57:13;;;;;;;1.50;1.40;;;;;;;23.42;70.22;96882.28;6068441;23;20192;-92
2022/06/24 08:59:42;;;;;;;1.77;1.67;;;;;;;22.41;70.08;96722.91;6045056;23;20181;-91
2022/06/24 09:02:12;;;;;;;1.83;1.73;;;;;;;;;;6068114;23;20159;-90
2022/06/24 09:04:43;;;;;;;1.80;1.70;;;;;;;22.60;70.36;96747.97;6089637;23;20185;-91
2022/06/24 09:07:28;;;;;;;1.70;1.60;;;;;;;22.76;70.14;96761.81;6092371;23;20191;-91
2022/06/24 09:10:04;;;;;;;1.70;1.60;;;;;;;22.68;70.20;96733.53;6092110;23;20199;-91
2022/06/24 09:12:36;;;;;;;1.60;1.50;;;;;;;22.32;70.16;96663.06;6091426;23;20148;-92
2022/06/24 09:15:04;;;;;;;1.70;1.60;;;;;;;22.20;70.14;96660.34;6092548;23;20203;-92
2022/06/24 09:17:31;;;;;;;1.63;1.53;;;;;;;22.28;70.10;96663.84;6068448;23;20188;-91
2022/06/24 09:20:24;;;;;;;1.97;1.70;;;;;;;21.89;69.88;96601.94;6067116;23;20175;-91
2022/06/24 09:23:04;;;;;;;1.50;1.30;;;;;;;23.46;69.97;96881.44;6068382;23;20148;-92
2022/06/24 09:25:44;;;;;;;1.53;1.43;;;;;;;22.65;70.03;96736.06;6092223;23;20167;-91
2022/06/24 09:28:11;;;;;;;2.00;1.60;;;;;;;22.46;70.00;96707.59;6090416;23;20214;-91
2022/06/24 09:30:38;;;;;;;1.50;1.40;;;;;;;22.89;69.89;96772.22;6092419;23;20169;-91
2022/06/24 09:33:05;;;;;;;1.60;1.50;;;;;;;22.26;70.09;96680.91;6092013;23;20193;-92
2022/06/24 09:36:02;;;;;;;1.57;1.47;;;;;;;23.03;70.10;96811.69;6072166;23;20169;-92
2022/06/24 09:38:29;;;;;;;1.57;1.47;;;;;;;21.77;70.06;96588.97;6044835;23;20164;-91
2022/06/24 09:41:00;;;;;;;1.50;1.40;;;;;;;23.03;69.89;96796.31;6092914;23;20168;-93
2022/06/24 09:43:31;;;;;;;1.60;1.50;;;;;;;21.91;70.07;96601.13;6091216;23;20168;-91
2022/06/24 09:45:57;;;;;;;3.23;1.30;;;;;;;22.43;70.05;96705.88;6092505;23;20188;-92
2022/06/24 09:48:32;;;;;;;2.30;1.70;;;;;;;22.70;69.95;96762.59;6092906;23;20210;-91
2022/06/24 09:51:03;;;;;;;1.60;1.50;;;;;;;22.31;69.76;96699.72;6045480;23;20149;-91
2022/06/24 09:53:32;;;;;;;1.43;1.33;;;;;;;22.21;70.10;96692.78;6067776;23;20236;-91
2022/06/24 09:55:59;;;;;;;1.60;1.50;;;;;;;22.01;69.96;96649.00;6045088;23;20200;-92
2022/06/24 09:58:26;;;;;;;1.67;1.57;;;;;;;22.23;69.86;96668.06;6051444;23;20184;-89
2022/06/24 10:00:52;;;;;;;2.50;1.60;;;;;;;23.29;69.93;96859.03;6073367;23;20172;-89
2022/06/24 10:03:19;;;;;;;1.73;1.50;;;;;;;22.87;70.12;96783.28;6071944;23;20209;-90
2022/06/24 10:05:48;;;;;;;2.07;1.37;;;;;;;22.72;69.81;96754.94;6070945;23;20180;-88
2022/06/24 10:08:20;;;;;;;1.70;1.60;;;;;;;22.96;69.82;96789.41;6070327;23;20175;-89
2022/06/24 10:10:48;;;;;;;1.43;1.33;;;;;;;23.37;69.89;96854.00;6073507;23;20164;-90
2022/06/24 10:13:25;;;;;;;1.70;1.60;;;;;;;23.23;69.95;96833.31;6086337;23;20197;-93
2022/06/24 10:15:53;;;;;;;1.63;1.53;;;;;;;22.14;69.76;96640.63;6068495;23;20241;-93
2022/06/24 10:18:22;;;;;;;1.60;1.50;;;;;;;23.27;70.03;96837.66;6065540;23;20160;-93
2022/06/24 10:20:50;;;;;;;3.10;1.53;;;;;;;22.34;70.04;96692.97;6044532;23;20212;-91
2022/06/24 10:23:47;;;;;;;2.00;1.60;;;;;;;23.46;69.96;96869.50;6044682;23;20539;-91
2022/06/24 10:26:27;;;;;;;1.60;1.50;;;;;;;23.07;69.78;96804.91;6092459;23;20209;-92
2022/06/24 10:29:05;;;;;;;1.23;1.23;;;;;;;23.47;69.94;96865.25;6091531;23;20160;-91
2022/06/24 10:31:44;;;;;;;1.40;1.30;;;;;;;23.46;69.91;96860.94;6092802;23;20163;-91
2022/06/24 10:34:12;;;;;;;1.57;1.47;;;;;;;23.14;69.98;96811.81;6091992;23;20240;-91
2022/06/24 10:36:39;;;;;;;1.40;1.30;;;;;;;22.83;69.76;96761.06;6091510;23;20200;-94
2022/06/24 10:39:14;;;;;;;1.80;1.50;;;;;;;22.93;69.81;96781.69;6043322;23;20294;-93
2022/06/24 10:41:41;;;;;;;1.67;1.57;;;;;;;23.05;69.89;96792.06;6043817;23;20167;-92
2022/06/24 10:44:24;;;;;;;1.70;1.60;;;;;;;22.26;69.61;96647.63;6067458;23;20179;-92
2022/06/24 10:47:12;;;;;;;1.40;1.30;;;;;;;23.47;69.98;96839.59;6091744;23;20216;-91
2022/06/24 10:50:01;;;;;;;1.50;1.40;;;;;;;23.47;69.87;96839.59;6091895;23;20180;-91
2022/06/24 10:52:41;;;;;;;1.60;1.50;;;;;;;23.46;70.14;96825.91;6092545;23;20148;-92
2022/06/24 10:55:30;;;;;;;1.40;1.30;;;;;;;23.48;69.90;96825.91;6090516;23;20215;-91
2022/06/24 10:58:06;;;;;;;1.60;1.50;;;;;;;23.17;70.00;96789.66;6091195;23;20153;-91
2022/06/24 11:00:39;;;;;;;1.53;1.43;;;;;;;23.45;69.95;96831.88;6067371;23;20148;-91
2022/06/24 11:03:15;;;;;;;1.47;1.37;;;;;;;23.02;70.09;96779.22;6091458;23;20179;-91
2022/06/24 11:05:42;;;;;;;1.50;1.40;;;;;;;23.05;70.16;96770.69;6067226;23;20172;-92
2022/06/24 11:08:19;;;;;;;1.50;1.40;;;;;;;22.56;70.00;96691.56;6090205;23;20205;-91
2022/06/24 11:10:47;;;;;;;1.50;1.40;;;;;;;22.32;69.99;96656.22;6090889;23;20168;-91
2022/06/24 11:13:14;;;;;;;2.03;1.53;;;;;;;22.46;70.09;96662.38;6090289;23;20176;-92
2022/06/24 11:15:52;;;;;;;1.50;1.40;;;;;;;22.48;69.97;96667.53;6065657;23;20188;-91
2022/06/24 11:18:26;;;;;;;1.67;1.57;;;;;;;22.46;69.93;96658.97;6091310;23;20168;-93
2022/06/24 11:21:03;;;;;;;2.07;1.60;;;;;;;23.47;69.93;96824.22;6067170;23;20176;-92
2022/06/24 11:23:31;;;;;;;1.60;1.50;;;;;;;23.06;69.95;96755.34;6092045;23;20149;-93
2022/06/24 11:26:18;;;;;;;1.53;1.43;;;;;;;23.06;69.81;96750.22;6040527;23;20184;-92
2022/06/24 11:28:52;;;;;;;2.00;1.40;;;;;;;22.57;69.64;96690.72;6091276;23;20171;-92
2022/06/24 11:31:21;;;;;;;1.30;1.20;;;;;;;22.60;69.84;96672.81;6092129;23;20191;-92
2022/06/24 11:33:49;;;;;;;1.57;1.47;;;;;;;22.28;69.80;96613.53;6091348;23;20191;-92
2022/06/24 11:36:16;;;;;;;1.67;1.57;;;;;;;22.28;69.75;96608.41;6067638;23;20177;-92
2022/06/24 11:38:56;;;;;;;1.60;1.50;;;;;;;22.57;69.64;96660.00;6092152;23;20160;-92
2022/06/24 11:41:39;;;;;;;2.37;1.60;;;;;;;22.22;69.93;96597.22;6065405;23;20160;-91
2022/06/24 11:44:30;;;;;;;1.63;1.53;;;;;;;23.45;69.23;96798.53;6071465;23;20236;-92
2022/06/24 11:46:56;;;;;;;1.50;1.40;;;;;;;23.05;70.03;96722.88;6069813;23;20188;-91
2022/06/24 11:49:23;;;;;;;1.20;1.20;;;;;;;23.05;69.49;96727.13;6091620;23;20171;-92
2022/06/24 11:51:50;;;;;;;1.43;1.37;;;;;;;23.07;69.85;96725.47;6090763;23;20180;-91
2022/06/24 11:54:16;;;;;;;1.60;1.50;;;;;;;23.06;69.72;96726.28;6091568;23;20237;-91